NCAR-RAP Real-Time Weather Data

Output produced by METARs form (26 May 2022  09:11 UTC)
found at http://weather.rap.ucar.edu/surface/
 
KLGA 260751Z 11006KT 10SM OVC250 13/08 A3031 RMK AO2 SLP263 T01330078
KLGA 260651Z 12007KT 10SM FEW150 BKN250 13/07 A3032 RMK AO2 SLP266 T01330067
KLGA 260551Z 13004KT 10SM FEW150 BKN250 14/06 A3034 RMK AO2 SLP273 T01390061 10156 20139 58010
KLGA 260451Z 15004KT 10SM BKN250 14/06 A3036 RMK AO2 SLP280 T01390056 402110128
KLGA 260351Z 16005KT 10SM BKN250 14/04 A3036 RMK AO2 SLP280 T01390039
KLGA 260251Z 17006KT 10SM BKN250 14/03 A3037 RMK AO2 SLP283 T01440028 50003
KLGA 260151Z 18004KT 10SM SCT250 14/05 A3037 RMK AO2 SLP284 T01440050
KLGA 260051Z 19009KT 10SM FEW130 SCT250 14/06 A3037 RMK AO2 SLP282 T01440056
KLGA 252351Z 17011KT 10SM SCT170 BKN260 16/04 A3036 RMK AO2 SLP280 T01560044 10206 20156 53007
KLGA 252251Z 14009KT 10SM FEW180 BKN250 17/05 A3035 RMK AO2 SLP276 T01670050
KLGA 252151Z 17010KT 10SM SCT200 SCT250 17/06 A3035 RMK AO2 SLP275 T01720061
KLGA 252051Z 17011KT 10SM FEW065 SCT250 19/08 A3034 RMK AO2 SLP273 T01940078 58009
KLGA 251951Z 18007KT 150V210 10SM FEW080 SCT250 20/07 A3036 RMK AO2 SLP280 T02000072
KLGA 251851Z 18009G18KT 150V210 10SM FEW075 BKN250 20/07 A3036 RMK AO2 SLP281 T02000067
KLGA 251751Z 17008G16KT 10SM SCT080 BKN250 20/07 A3037 RMK AO2 SLP283 T02000072 10211 20144 56010
KLGA 251651Z 06007KT 030V110 10SM FEW090 BKN250 21/08 A3037 RMK AO2 SLP284 T02060083
KLGA 251551Z 04007KT 10SM BKN250 19/08 A3039 RMK AO2 SLP291 T01890078
KLGA 251451Z 05008KT 10SM BKN250 17/08 A3040 RMK AO2 SLP293 T01720083 53001
KLGA 251351Z 04008KT 10SM FEW100 BKN250 17/08 A3040 RMK AO2 SLP292 T01670083
KLGA 251251Z COR 04007KT 10SM FEW100 BKN250 16/07 A3039 RMK AO2 SLP292 T01560067
KLGA 251151Z 05007KT 10SM FEW100 BKN250 14/07 A3039 RMK AO2 SLP292 T01440072 10144 20128 53016
KLGA 251051Z 06006KT 10SM FEW100 BKN250 13/08 A3037 RMK AO2 SLP283 T01330078
KLGA 250951Z 07007KT 10SM FEW100 BKN250 13/08 A3034 RMK AO2 SLP275 T01280083
KLGA 250851Z 08006KT 10SM FEW075 SCT250 13/08 A3035 RMK AO2 SLP275 T01330083 53008
KLGA 250751Z 07007KT 10SM SCT250 14/09 A3033 RMK AO2 SLP270 T01390089
KLGA 250651Z 00000KT 10SM SCT250 13/08 A3034 RMK AO2 SLP272 T01330083
KLGA 250551Z 08004KT 10SM BKN250 14/07 A3032 RMK AO2 SLP268 T01390072 10161 20139 58002
KLGA 250451Z 10008KT 10SM BKN250 14/07 A3032 RMK AO2 SLP268 T01440067 401830144
KLGA 250351Z 11010KT 10SM SCT250 15/06 A3033 RMK AO2 SLP271 T01500061
KLGA 250251Z 15006KT 10SM BKN250 15/06 A3033 RMK AO2 SLP270 T01500061 51012
KLGA 250151Z 16007KT 10SM BKN090 BKN250 16/06 A3033 RMK AO2 SLP270 T01560061
KLGA 250051Z 16007KT 10SM FEW050 BKN095 BKN250 16/07 A3032 RMK AO2 SLP266 T01560067
KLGA 242351Z 17009KT 10SM FEW050 BKN095 BKN250 16/08 A3029 RMK AO2 SLP258 T01610078 10183 20161 53003
KLGA 242251Z 19006KT 10SM FEW040 BKN090 BKN250 18/07 A3029 RMK AO2 SLP255 T01780067
KLGA 242151Z 05010KT 10SM FEW050 BKN090 BKN250 18/07 A3028 RMK AO2 SLP254 T01780067
KLGA 242051Z 04009KT 10SM FEW050 BKN090 BKN250 18/08 A3029 RMK AO2 SLP255 T01780078 58003
KLGA 241951Z 05009KT 10SM FEW055 BKN085 BKN250 17/08 A3029 RMK AO2 SLP257 T01720083
KLGA 241851Z 05012KT 10SM SCT055 BKN085 BKN250 18/08 A3030 RMK AO2 SLP259 T01780083
KLGA 241751Z 04012KT 10SM SCT043 BKN085 BKN250 18/08 A3029 RMK AO2 SLP258 T01780078 10183 20156 58005
KLGA 241651Z 04013KT 10SM FEW035 BKN090 17/08 A3031 RMK AO2 SLP262 T01720083
KLGA 241551Z 05013KT 10SM FEW035 BKN090 BKN250 17/08 A3031 RMK AO2 SLP265 T01670083
KLGA 241451Z 04014KT 10SM FEW055 BKN090 OVC160 16/08 A3031 RMK AO2 SLP263 T01610083 51007
KLGA 241351Z 05015KT 10SM SCT055 BKN090 OVC160 17/08 A3030 RMK AO2 SLP260 T01670083
KLGA 241251Z 05014KT 10SM BKN050 BKN090 OVC160 16/10 A3030 RMK AO2 SLP260 T01610100
KLGA 241151Z COR 06012KT 10SM BKN043 BKN170 OVC250 16/10 A3029 RMK AO2 SLP256 60000 T01610100 10172 20156 51022
KLGA 241051Z 06010KT 10SM FEW100 OVC170 16/11 A3027 RMK AO2 SLP249 T01560106
KLGA 240951Z 05008KT 10SM FEW120 BKN140 OVC200 16/09 A3025 RMK AO2 SLP244 T01560094